createdAt,value
2022-09-06T00:07:16.588Z,0.0
2022-09-06T00:11:17.890Z,0.0
2022-09-06T00:13:10.093Z,0.0
2022-09-06T00:16:29.708Z,0.0
2022-09-06T00:21:11.679Z,0.0
2022-09-06T00:26:18.064Z,0.0
2022-09-06T00:31:49.596Z,0.0
2022-09-06T00:36:31.909Z,0.0
2022-09-06T00:42:02.353Z,0.0
2022-09-06T00:46:44.716Z,0.0
2022-09-06T00:57:01.077Z,0.0
2022-09-06T01:02:07.614Z,0.0
2022-09-06T01:07:13.841Z,0.0
2022-09-06T01:12:20.223Z,0.0
2022-09-06T01:22:53.137Z,0.0
2022-09-06T01:27:39.519Z,0.0
2022-09-06T01:33:05.975Z,0.0
2022-09-06T01:38:16.347Z,0.0
2022-09-06T01:44:22.871Z,0.0
2022-09-06T01:48:25.256Z,0.0
2022-09-06T01:55:31.733Z,0.0
2022-09-06T02:01:06.247Z,0.0
2022-09-06T02:03:27.488Z,0.0
2022-09-06T02:08:57.892Z,0.0
2022-09-06T02:14:24.398Z,0.0
2022-09-06T02:18:46.704Z,0.0
2022-09-06T02:23:53.051Z,0.0
2022-09-06T02:29:03.535Z,0.0
2022-09-06T02:34:25.909Z,0.0
2022-09-06T02:40:24.398Z,0.0
2022-09-06T02:44:18.662Z,0.0
2022-09-06T02:49:25.051Z,0.0
2022-09-06T02:54:31.456Z,0.0
2022-09-06T02:59:37.916Z,0.0
2022-09-06T03:05:04.436Z,0.0
2022-09-06T03:10:10.948Z,0.0
2022-09-06T03:14:57.328Z,0.0
2022-09-06T03:21:15.854Z,0.0
2022-09-06T03:25:30.200Z,0.0
2022-09-06T03:31:00.752Z,0.0
2022-09-06T03:35:46.903Z,0.0
2022-09-06T03:41:41.403Z,0.0
2022-09-06T03:45:59.720Z,0.0
2022-09-06T03:50:42.043Z,0.0
2022-09-06T03:55:52.428Z,0.0
2022-09-06T04:00:54.821Z,0.0
2022-09-06T04:07:01.294Z,0.0
2022-09-06T04:11:07.627Z,0.0
2022-09-06T04:18:58.205Z,0.0
2022-09-06T04:21:20.292Z,0.0
2022-09-06T04:29:14.925Z,0.0
2022-09-06T04:31:33.155Z,4.0
2022-09-06T04:37:51.616Z,4.0
2022-09-06T04:46:52.222Z,8.0
2022-09-06T04:51:58.601Z,16.0
2022-09-06T04:57:05.015Z,32.0
2022-09-06T05:03:23.507Z,56.0
2022-09-06T05:07:17.766Z,100.0
2022-09-06T05:12:48.190Z,204.0
2022-09-06T05:18:30.919Z,384.0
2022-09-06T05:22:57.002Z,512.0
2022-09-06T05:28:03.377Z,696.0
2022-09-06T05:33:09.774Z,804.0
2022-09-06T05:38:16.157Z,684.0
2022-09-06T05:48:08.028Z,668.0
2022-09-06T05:49:02.129Z,624.0
2022-09-06T05:53:35.458Z,756.0
2022-09-06T05:58:41.874Z,832.0
2022-09-06T06:03:28.215Z,1004.0
2022-09-06T06:08:34.582Z,1300.0
2022-09-06T06:13:44.518Z,1932.0
2022-09-06T06:31:56.489Z,3564.0
2022-09-06T06:36:39.826Z,4224.0
2022-09-06T06:41:46.300Z,4332.0
2022-09-06T06:47:12.817Z,4672.0
2022-09-06T06:51:59.156Z,4836.0
2022-09-06T06:56:55.518Z,5068.0
2022-09-06T07:02:12.106Z,9600.0
2022-09-06T07:07:35.517Z,5260.0
2022-09-06T07:12:23.663Z,8116.0
2022-09-06T07:17:31.060Z,15552.0
2022-09-06T07:22:37.437Z,19520.0
2022-09-06T07:28:07.922Z,21504.0
2022-09-06T07:32:40.220Z,22784.0
2022-09-06T07:37:59.633Z,25344.0
2022-09-06T07:43:03.043Z,28320.0
2022-09-06T07:48:12.969Z,31136.0
2022-09-06T07:53:26.306Z,32416.0
2022-09-06T07:58:25.853Z,33344.0
2022-09-06T08:03:32.242Z,36576.0
2022-09-06T08:09:41.763Z,36448.0
2022-09-06T08:14:29.102Z,40320.0
2022-09-06T08:19:59.519Z,42560.0
2022-09-06T08:24:37.856Z,41696.0
2022-09-06T08:29:48.253Z,46944.0
2022-09-06T08:34:50.636Z,47360.0
2022-09-06T08:39:57.059Z,45664.0
2022-09-06T08:45:23.411Z,53568.0
2022-09-06T08:50:09.813Z,53920.0
2022-09-06T09:00:22.605Z,60992.0
2022-09-06T09:05:29.071Z,61536.0
2022-09-06T09:10:35.474Z,59936.0
2022-09-06T09:15:31.839Z,61376.0
2022-09-06T09:20:48.236Z,58976.0
2022-09-06T09:26:18.707Z,61408.0
2022-09-06T09:31:25.139Z,63328.0
2022-09-06T09:36:07.462Z,64448.0
2022-09-06T09:41:13.825Z,63200.0
2022-09-06T09:46:20.290Z,63808.0
2022-09-06T09:51:27.812Z,72320.0
2022-09-06T09:56:33.171Z,63008.0
2022-09-06T10:01:39.635Z,64544.0
2022-09-06T10:11:52.398Z,67424.0
2022-09-06T10:16:58.896Z,69920.0
2022-09-06T10:22:05.271Z,70912.0
2022-09-06T10:27:11.761Z,69376.0
2022-09-06T10:33:42.407Z,72128.0
2022-09-06T10:37:14.684Z,81984.0
2022-09-06T10:42:55.187Z,73920.0
2022-09-06T10:47:37.540Z,78592.0
2022-09-06T10:54:08.076Z,85344.0
2022-09-06T11:11:19.951Z,78272.0
2022-09-06T11:16:49.561Z,76512.0
2022-09-06T11:30:03.932Z,72608.0
2022-09-06T11:35:11.325Z,73792.0
2022-09-06T11:45:24.109Z,71296.0
2022-09-06T11:50:54.527Z,74368.0
2022-09-06T11:55:36.847Z,73024.0
2022-09-06T12:00:43.221Z,86240.0
2022-09-06T12:05:49.594Z,70464.0
2022-09-06T12:10:56.060Z,79264.0
2022-09-06T12:16:02.660Z,77152.0
2022-09-06T12:21:53.237Z,75200.0
2022-09-06T12:26:15.520Z,74752.0
2022-09-06T12:31:46.021Z,72736.0
2022-09-06T12:38:00.469Z,73088.0
2022-09-06T12:41:24.642Z,71104.0
2022-09-06T12:47:05.102Z,73536.0
2022-09-06T12:52:31.529Z,65600.0
2022-09-06T12:56:53.823Z,66240.0
2022-09-06T13:01:50.350Z,67744.0
2022-09-06T13:07:06.692Z,68704.0
2022-09-06T13:12:13.099Z,65760.0
2022-09-06T13:17:19.474Z,69632.0
2022-09-06T13:22:25.859Z,64928.0
2022-09-06T13:27:56.290Z,60864.0
2022-09-06T13:33:02.676Z,60768.0
2022-09-06T13:37:45.006Z,47904.0
2022-09-06T13:42:51.404Z,57568.0
2022-09-06T13:48:13.038Z,44192.0
2022-09-06T13:53:04.179Z,44480.0
2022-09-06T13:58:10.661Z,39488.0
2022-09-06T14:03:17.039Z,33600.0
2022-09-06T14:09:05.730Z,27168.0
2022-09-06T14:13:28.811Z,26464.0
2022-09-06T14:18:36.193Z,25856.0
2022-09-06T14:23:42.592Z,24352.0
2022-09-06T14:29:08.998Z,23488.0
2022-09-06T14:33:55.331Z,15200.0
2022-09-06T14:39:01.692Z,11200.0
2022-09-06T14:44:08.071Z,10608.0
2022-09-06T14:50:26.657Z,10160.0
2022-09-06T14:54:20.899Z,9464.0
2022-09-06T14:59:27.279Z,7048.0
2022-09-06T15:04:33.664Z,5920.0
2022-09-06T15:09:44.035Z,4832.0
2022-09-06T15:14:50.415Z,4808.0
2022-09-06T15:21:04.967Z,4884.0
2022-09-06T15:24:59.206Z,4456.0
2022-09-06T15:30:05.712Z,4240.0
2022-09-06T15:35:12.091Z,6252.0
2022-09-06T15:40:18.528Z,4464.0
2022-09-06T15:45:24.978Z,5860.0
2022-09-06T15:50:50.399Z,6280.0
2022-09-06T15:55:41.528Z,5852.0
2022-09-06T16:00:44.220Z,5636.0
2022-09-06T16:11:59.180Z,5172.0
2022-09-06T16:16:07.427Z,4536.0
2022-09-06T16:21:09.851Z,4272.0
2022-09-06T16:26:21.112Z,3468.0
2022-09-06T16:31:42.790Z,3388.0
2022-09-06T16:36:29.193Z,2952.0
2022-09-06T16:41:35.590Z,2680.0
2022-09-06T16:46:43.128Z,2848.0
2022-09-06T16:51:49.511Z,2820.0
2022-09-06T16:57:19.934Z,2400.0
2022-09-06T17:02:02.426Z,1896.0
2022-09-06T17:07:08.657Z,1648.0
2022-09-06T17:12:15.033Z,1548.0
2022-09-06T17:17:21.423Z,1488.0
2022-09-06T17:22:27.823Z,1332.0
2022-09-06T17:27:34.206Z,1144.0
2022-09-06T17:32:40.690Z,968.0
2022-09-06T17:37:37.053Z,824.0
2022-09-06T17:42:53.468Z,680.0
2022-09-06T17:47:59.848Z,528.0
2022-09-06T17:58:12.598Z,260.0
2022-09-06T18:03:39.046Z,176.0
2022-09-06T18:09:25.499Z,116.0
2022-09-06T18:13:55.826Z,68.0
2022-09-06T18:19:02.211Z,36.0
2022-09-06T18:23:48.557Z,16.0
2022-09-06T18:28:54.938Z,8.0
2022-09-06T18:33:57.419Z,4.0
2022-09-06T18:39:03.905Z,0.0
2022-09-06T18:44:00.258Z,0.0
2022-09-06T18:49:16.656Z,0.0
2022-09-06T18:54:13.028Z,0.0
2022-09-06T18:59:28.442Z,0.0
2022-09-06T19:05:35.952Z,0.0
2022-09-06T19:09:42.198Z,0.0
2022-09-06T19:14:48.618Z,0.0
2022-09-06T19:20:15.048Z,0.0
2022-09-06T19:25:01.373Z,0.0
2022-09-06T19:30:07.756Z,0.0
2022-09-06T19:35:14.243Z,0.0
2022-09-06T19:40:20.812Z,0.0
2022-09-06T19:45:27.221Z,0.0
2022-09-06T19:50:33.593Z,0.0
2022-09-06T19:55:39.973Z,0.0
2022-09-06T20:00:46.398Z,0.0
2022-09-06T20:05:52.761Z,0.0
2022-09-06T20:10:59.139Z,0.0
2022-09-06T20:16:05.619Z,0.0
2022-09-06T20:21:11.917Z,0.0
2022-09-06T20:26:19.362Z,0.0
2022-09-06T20:31:49.906Z,0.0
2022-09-06T20:36:32.304Z,0.0
2022-09-06T20:41:38.685Z,0.0
2022-09-06T20:46:45.141Z,0.0
2022-09-06T20:51:51.451Z,0.0
2022-09-06T20:56:58.388Z,0.0
2022-09-06T21:02:28.894Z,0.0
2022-09-06T21:07:01.132Z,0.0
2022-09-06T21:12:07.515Z,0.0
2022-09-06T21:17:23.996Z,0.0
2022-09-06T21:22:30.376Z,0.0
2022-09-06T21:28:00.794Z,0.0
2022-09-06T21:32:43.145Z,0.0
2022-09-06T21:38:09.575Z,0.0
2022-09-06T21:43:56.024Z,0.0
2022-09-06T21:48:02.279Z,0.0
2022-09-06T21:53:08.655Z,0.0
2022-09-06T21:58:15.020Z,0.0
2022-09-06T22:03:21.440Z,0.0
2022-09-06T22:08:28.667Z,0.0
2022-09-06T22:13:34.955Z,0.0
2022-09-06T22:18:41.335Z,0.0
2022-09-06T22:23:47.731Z,0.0
2022-09-06T22:28:54.086Z,0.0
2022-09-06T22:34:00.487Z,0.0
2022-09-06T22:39:06.861Z,0.0
2022-09-06T22:44:13.339Z,0.0
2022-09-06T22:49:19.743Z,0.0
2022-09-06T22:54:26.138Z,0.0
2022-09-06T22:59:32.518Z,0.0
2022-09-06T23:04:28.923Z,0.0
2022-09-06T23:09:45.288Z,0.0
2022-09-06T23:14:51.682Z,0.0
2022-09-06T23:19:58.040Z,0.0
2022-09-06T23:25:04.443Z,0.0
2022-09-06T23:30:10.872Z,0.0
2022-09-06T23:35:07.246Z,0.0
2022-09-06T23:40:13.728Z,0.0
2022-09-06T23:45:30.118Z,0.0
2022-09-06T23:50:36.507Z,0.0
2022-09-06T23:55:56.915Z,0.0
